sensor_id;sensor_type;location;lat;lon;timestamp;pressure;altitude;pressure_sealevel;temperature;humidity
39449;BME280;25151;45.566;9.382;2023-04-01T00:02:18;98649.28;;;19.69;57.51
39449;BME280;25151;45.566;9.382;2023-04-01T00:05:19;98638.53;;;19.67;57.53
39449;BME280;25151;45.566;9.382;2023-04-01T00:08:20;98632.50;;;19.69;57.60
39449;BME280;25151;45.566;9.382;2023-04-01T00:11:21;98636.22;;;19.65;57.45
39449;BME280;25151;45.566;9.382;2023-04-01T00:14:21;98629.09;;;19.64;57.38
39449;BME280;25151;45.566;9.382;2023-04-01T00:17:22;98626.56;;;19.67;57.38
39449;BME280;25151;45.566;9.382;2023-04-01T00:20:24;98629.38;;;19.67;57.24
39449;BME280;25151;45.566;9.382;2023-04-01T00:23:25;98623.31;;;19.68;57.38
39449;BME280;25151;45.566;9.382;2023-04-01T00:26:26;98621.16;;;19.63;57.10
39449;BME280;25151;45.566;9.382;2023-04-01T00:29:27;98619.44;;;19.65;57.31
39449;BME280;25151;45.566;9.382;2023-04-01T00:32:29;98608.75;;;19.64;57.22
39449;BME280;25151;45.566;9.382;2023-04-01T00:35:32;98613.53;;;19.63;57.36
39449;BME280;25151;45.566;9.382;2023-04-01T00:38:33;98614.47;;;19.60;57.37
39449;BME280;25151;45.566;9.382;2023-04-01T00:41:33;98618.34;;;19.63;57.23
39449;BME280;25151;45.566;9.382;2023-04-01T00:44:36;98608.44;;;19.62;57.43
39449;BME280;25151;45.566;9.382;2023-04-01T00:47:37;98599.25;;;19.61;57.31
39449;BME280;25151;45.566;9.382;2023-04-01T00:50:40;98588.06;;;19.61;57.40
39449;BME280;25151;45.566;9.382;2023-04-01T00:53:46;98595.22;;;19.62;57.41
39449;BME280;25151;45.566;9.382;2023-04-01T00:56:50;98592.41;;;19.62;57.37
39449;BME280;25151;45.566;9.382;2023-04-01T00:59:56;98593.66;;;19.61;57.36
39449;BME280;25151;45.566;9.382;2023-04-01T01:02:57;98593.66;;;19.61;57.21
39449;BME280;25151;45.566;9.382;2023-04-01T01:09:37;98592.41;;;19.62;57.34
39449;BME280;25151;45.566;9.382;2023-04-01T01:12:50;98593.03;;;19.57;57.18
39449;BME280;25151;45.566;9.382;2023-04-01T01:16:15;98604.84;;;19.61;57.27
39449;BME280;25151;45.566;9.382;2023-04-01T01:33:44;98594.13;;;19.60;57.21
39449;BME280;25151;45.566;9.382;2023-04-01T01:36:31;98592.25;;;19.57;57.24
39449;BME280;25151;45.566;9.382;2023-04-01T01:39:35;98592.25;;;19.57;57.29
39449;BME280;25151;45.566;9.382;2023-04-01T01:42:39;98589.16;;;19.55;57.09
39449;BME280;25151;45.566;9.382;2023-04-01T01:45:45;98583.38;;;19.58;57.39
39449;BME280;25151;45.566;9.382;2023-04-01T01:48:47;98588.69;;;19.56;57.44
39449;BME280;25151;45.566;9.382;2023-04-01T01:51:52;98599.56;;;19.54;57.09
39449;BME280;25151;45.566;9.382;2023-04-01T01:54:54;98588.69;;;19.56;57.27
39449;BME280;25151;45.566;9.382;2023-04-01T01:57:59;98587.13;;;19.55;57.27
39449;BME280;25151;45.566;9.382;2023-04-01T02:01:04;98576.44;;;19.54;57.22
39449;BME280;25151;45.566;9.382;2023-04-01T02:04:08;98579.69;;;19.52;57.35
39449;BME280;25151;45.566;9.382;2023-04-01T02:07:18;98589.16;;;19.55;57.19
39449;BME280;25151;45.566;9.382;2023-04-01T02:10:21;98591.50;;;19.56;57.21
39449;BME280;25151;45.566;9.382;2023-04-01T02:13:29;98596.16;;;19.50;57.19
39449;BME280;25151;45.566;9.382;2023-04-01T02:17:32;98595.69;;;19.52;57.16
39449;BME280;25151;45.566;9.382;2023-04-01T02:20:05;98590.09;;;19.52;57.26
39449;BME280;25151;45.566;9.382;2023-04-01T02:23:07;98600.50;;;19.51;57.14
39449;BME280;25151;45.566;9.382;2023-04-01T02:26:11;98600.50;;;19.51;57.30
39449;BME280;25151;45.566;9.382;2023-04-01T02:29:15;98603.63;;;19.53;57.25
39449;BME280;25151;45.566;9.382;2023-04-01T02:32:20;98603.78;;;19.50;57.17
39449;BME280;25151;45.566;9.382;2023-04-01T02:35:22;98608.59;;;19.49;57.24
39449;BME280;25151;45.566;9.382;2023-04-01T02:38:23;98611.41;;;19.49;57.22
39449;BME280;25151;45.566;9.382;2023-04-01T02:41:24;98617.59;;;19.53;57.18
39449;BME280;25151;45.566;9.382;2023-04-01T02:44:25;98615.44;;;19.48;57.20
39449;BME280;25151;45.566;9.382;2023-04-01T02:47:26;98618.69;;;19.47;57.16
39449;BME280;25151;45.566;9.382;2023-04-01T02:50:27;98615.72;;;19.50;57.25
39449;BME280;25151;45.566;9.382;2023-04-01T02:53:28;98620.56;;;19.50;57.18
39449;BME280;25151;45.566;9.382;2023-04-01T02:56:29;98626.16;;;19.50;57.12
39449;BME280;25151;45.566;9.382;2023-04-01T02:59:30;98635.00;;;19.48;57.22
39449;BME280;25151;45.566;9.382;2023-04-01T03:02:31;98639.03;;;19.47;57.19
39449;BME280;25151;45.566;9.382;2023-04-01T03:05:31;98630.97;;;19.49;57.19
39449;BME280;25151;45.566;9.382;2023-04-01T03:08:32;98633.44;;;19.47;57.16
39449;BME280;25151;45.566;9.382;2023-04-01T03:11:34;98639.34;;;19.49;56.83
39449;BME280;25151;45.566;9.382;2023-04-01T03:14:34;98623.50;;;19.46;57.12
39449;BME280;25151;45.566;9.382;2023-04-01T03:17:38;98621.50;;;19.47;57.31
39449;BME280;25151;45.566;9.382;2023-04-01T03:20:40;98635.19;;;19.45;57.12
39449;BME280;25151;45.566;9.382;2023-04-01T03:23:40;98643.09;;;19.46;57.12
39449;BME280;25151;45.566;9.382;2023-04-01T03:26:41;98632.38;;;19.45;57.11
39449;BME280;25151;45.566;9.382;2023-04-01T03:29:42;98637.19;;;19.44;57.26
39449;BME280;25151;45.566;9.382;2023-04-01T03:32:43;98646.19;;;19.48;57.23
39449;BME280;25151;45.566;9.382;2023-04-01T03:35:44;98639.03;;;19.47;57.21
39449;BME280;25151;45.566;9.382;2023-04-01T03:38:45;98641.53;;;19.45;57.03
39449;BME280;25151;45.566;9.382;2023-04-01T03:41:46;98648.38;;;19.44;57.18
39449;BME280;25151;45.566;9.382;2023-04-01T03:44:47;98651.19;;;19.44;57.24
39449;BME280;25151;45.566;9.382;2023-04-01T03:47:48;98651.94;;;19.45;57.06
39449;BME280;25151;45.566;9.382;2023-04-01T03:50:48;98648.84;;;19.42;57.20
39449;BME280;25151;45.566;9.382;2023-04-01T03:53:49;98655.19;;;19.43;57.30
39449;BME280;25151;45.566;9.382;2023-04-01T03:56:50;98658.00;;;19.43;57.09
39449;BME280;25151;45.566;9.382;2023-04-01T03:59:51;98655.97;;;19.44;57.14
39449;BME280;25151;45.566;9.382;2023-04-01T04:02:52;98652.41;;;19.43;57.03
39449;BME280;25151;45.566;9.382;2023-04-01T04:05:53;98644.00;;;19.43;57.10
39449;BME280;25151;45.566;9.382;2023-04-01T04:08:56;98646.81;;;19.43;57.02
39449;BME280;25151;45.566;9.382;2023-04-01T04:11:57;98653.16;;;19.44;57.28
39449;BME280;25151;45.566;9.382;2023-04-01T04:14:59;98646.03;;;19.42;57.14
39449;BME280;25151;45.566;9.382;2023-04-01T04:18:01;98652.56;;;19.39;57.19
39449;BME280;25151;45.566;9.382;2023-04-01T04:21:02;98655.34;;;19.39;57.14
39449;BME280;25151;45.566;9.382;2023-04-01T04:24:03;98656.94;;;19.40;57.08
39449;BME280;25151;45.566;9.382;2023-04-01T04:27:04;98651.63;;;19.42;56.89
39449;BME280;25151;45.566;9.382;2023-04-01T04:30:07;98652.09;;;19.41;56.98
39449;BME280;25151;45.566;9.382;2023-04-01T04:33:08;98651.34;;;19.40;57.03
39449;BME280;25151;45.566;9.382;2023-04-01T04:36:09;98650.53;;;19.40;57.17
39449;BME280;25151;45.566;9.382;2023-04-01T04:39:12;98654.91;;;19.41;57.30
39449;BME280;25151;45.566;9.382;2023-04-01T04:42:12;98659.41;;;19.38;56.99
39449;BME280;25151;45.566;9.382;2023-04-01T04:45:13;98667.31;;;19.40;57.21
39449;BME280;25151;45.566;9.382;2023-04-01T04:48:15;98660.19;;;19.39;57.01
39449;BME280;25151;45.566;9.382;2023-04-01T04:51:21;98664.22;;;19.38;57.20
39449;BME280;25151;45.566;9.382;2023-04-01T04:54:23;98658.63;;;19.38;57.15
39449;BME280;25151;45.566;9.382;2023-04-01T04:57:24;98657.09;;;19.37;57.13
39449;BME280;25151;45.566;9.382;2023-04-01T05:00:25;98664.22;;;19.38;56.96
39449;BME280;25151;45.566;9.382;2023-04-01T05:03:26;98668.72;;;19.35;57.06
39449;BME280;25151;45.566;9.382;2023-04-01T05:06:27;98668.28;;;19.37;57.16
39449;BME280;25151;45.566;9.382;2023-04-01T05:09:30;98668.56;;;19.39;57.15
39449;BME280;25151;45.566;9.382;2023-04-01T05:12:34;98680.84;;;19.41;57.08
39449;BME280;25151;45.566;9.382;2023-04-01T05:15:39;98677.72;;;19.39;56.88
39449;BME280;25151;45.566;9.382;2023-04-01T05:18:46;98680.06;;;19.41;57.05
39449;BME280;25151;45.566;9.382;2023-04-01T05:21:48;98680.84;;;19.41;57.00
39449;BME280;25151;45.566;9.382;2023-04-01T05:24:50;98688.75;;;19.43;57.15
39449;BME280;25151;45.566;9.382;2023-04-01T05:27:54;98684.09;;;19.40;57.03
39449;BME280;25151;45.566;9.382;2023-04-01T05:30:59;98694.34;;;19.43;57.24
39449;BME280;25151;45.566;9.382;2023-04-01T05:34:03;98678.81;;;19.42;57.18
39449;BME280;25151;45.566;9.382;2023-04-01T05:37:06;98683.16;;;19.43;57.30
39449;BME280;25151;45.566;9.382;2023-04-01T05:40:09;98687.81;;;19.46;57.14
39449;BME280;25151;45.566;9.382;2023-04-01T05:43:10;98691.84;;;19.45;57.17
39449;BME280;25151;45.566;9.382;2023-04-01T05:46:12;98687.03;;;19.46;57.21
39449;BME280;25151;45.566;9.382;2023-04-01T05:49:18;98687.81;;;19.46;57.15
39449;BME280;25151;45.566;9.382;2023-04-01T05:52:25;98686.28;;;19.45;57.47
39449;BME280;25151;45.566;9.382;2023-04-01T05:55:28;98681.44;;;19.46;57.29
39449;BME280;25151;45.566;9.382;2023-04-01T05:58:31;98693.41;;;19.46;57.43
39449;BME280;25151;45.566;9.382;2023-04-01T06:01:36;98686.28;;;19.45;57.31
39449;BME280;25151;45.566;9.382;2023-04-01T06:04:41;98695.91;;;19.44;57.34
39449;BME280;25151;45.566;9.382;2023-04-01T06:07:45;98695.28;;;19.49;57.27
39449;BME280;25151;45.566;9.382;2023-04-01T06:21:37;98731.91;;;19.51;57.39
39449;BME280;25151;45.566;9.382;2023-04-01T06:28:05;98719.94;;;19.51;57.64
39449;BME280;25151;45.566;9.382;2023-04-01T06:35:24;98712.50;;;19.48;57.65
39449;BME280;25151;45.566;9.382;2023-04-01T06:38:51;98718.88;;;19.48;57.63
39449;BME280;25151;45.566;9.382;2023-04-01T06:46:18;98717.94;;;19.51;57.68
39449;BME280;25151;45.566;9.382;2023-04-01T06:53:17;98724.63;;;19.54;57.50
39449;BME280;25151;45.566;9.382;2023-04-01T06:56:25;98706.13;;;19.47;57.54
39449;BME280;25151;45.566;9.382;2023-04-01T06:59:32;98713.28;;;19.48;57.55
39449;BME280;25151;45.566;9.382;2023-04-01T07:02:42;98724.47;;;19.48;57.47
39449;BME280;25151;45.566;9.382;2023-04-01T07:05:46;98715.91;;;19.52;57.53
39449;BME280;25151;45.566;9.382;2023-04-01T07:08:51;98724.47;;;19.48;57.47
39449;BME280;25151;45.566;9.382;2023-04-01T07:12:01;98729.28;;;19.48;57.33
39449;BME280;25151;45.566;9.382;2023-04-01T07:15:20;98725.25;;;19.49;57.66
39449;BME280;25151;45.566;9.382;2023-04-01T07:19:01;98726.19;;;19.46;57.37
39449;BME280;25151;45.566;9.382;2023-04-01T07:22:28;98740.78;;;19.50;57.17
39449;BME280;25151;45.566;9.382;2023-04-01T07:25:37;98731.00;;;19.45;57.36
39449;BME280;25151;45.566;9.382;2023-04-01T07:28:39;98749.66;;;19.48;57.36
39449;BME280;25151;45.566;9.382;2023-04-01T07:35:07;98733.16;;;19.50;57.23
39449;BME280;25151;45.566;9.382;2023-04-01T07:41:44;98732.38;;;19.50;57.15
39449;BME280;25151;45.566;9.382;2023-04-01T07:48:39;98733.94;;;19.51;56.96
39449;BME280;25151;45.566;9.382;2023-04-01T07:52:08;98715.78;;;19.46;57.14
39449;BME280;25151;45.566;9.382;2023-04-01T07:55:42;98734.72;;;19.51;57.17
39449;BME280;25151;45.566;9.382;2023-04-01T08:06:24;98739.84;;;19.53;56.84
39449;BME280;25151;45.566;9.382;2023-04-01T08:13:26;98752.09;;;19.55;56.91
39449;BME280;25151;45.566;9.382;2023-04-01T08:17:10;98750.88;;;19.56;56.86
39449;BME280;25151;45.566;9.382;2023-04-01T08:20:39;98749.63;;;19.57;57.04
39449;BME280;25151;45.566;9.382;2023-04-01T08:23:52;98742.78;;;19.58;56.89
39449;BME280;25151;45.566;9.382;2023-04-01T08:27:00;98740.75;;;19.59;56.92
39449;BME280;25151;45.566;9.382;2023-04-01T08:30:33;98732.38;;;19.59;56.86
39449;BME280;25151;45.566;9.382;2023-04-01T08:33:39;98734.72;;;19.60;56.82
39449;BME280;25151;45.566;9.382;2023-04-01T08:36:46;98744.69;;;19.61;56.80
39449;BME280;25151;45.566;9.382;2023-04-01T08:40:02;98739.09;;;19.61;56.73
39449;BME280;25151;45.566;9.382;2023-04-01T09:00:21;98735.50;;;19.70;56.58
39449;BME280;25151;45.566;9.382;2023-04-01T09:10:11;98744.66;;;19.71;56.75
39449;BME280;25151;45.566;9.382;2023-04-01T09:17:27;98744.00;;;19.76;56.66
39449;BME280;25151;45.566;9.382;2023-04-01T09:28:10;98736.72;;;19.78;56.84
39449;BME280;25151;45.566;9.382;2023-04-01T09:31:21;98744.66;;;19.80;56.65
39449;BME280;25151;45.566;9.382;2023-04-01T09:38:51;98752.41;;;19.85;56.54
39449;BME280;25151;45.566;9.382;2023-04-01T09:41:57;98737.66;;;19.84;56.64
39449;BME280;25151;45.566;9.382;2023-04-01T09:51:59;98737.78;;;19.90;56.52
39449;BME280;25151;45.566;9.382;2023-04-01T10:01:33;98727.97;;;19.95;56.43
39449;BME280;25151;45.566;9.382;2023-04-01T10:08:07;98726.72;;;19.96;56.54
39449;BME280;25151;45.566;9.382;2023-04-01T10:14:42;98723.47;;;19.97;56.76
39449;BME280;25151;45.566;9.382;2023-04-01T10:28:06;98723.75;;;19.99;56.87
39449;BME280;25151;45.566;9.382;2023-04-01T11:20:01;98696.03;;;20.10;56.53
39449;BME280;25151;45.566;9.382;2023-04-01T11:23:38;98700.09;;;20.09;56.43
39449;BME280;25151;45.566;9.382;2023-04-01T12:03:09;98664.63;;;20.16;56.86
39449;BME280;25151;45.566;9.382;2023-04-01T12:13:12;98667.72;;;20.18;56.93
39449;BME280;25151;45.566;9.382;2023-04-01T12:26:33;98666.94;;;20.17;56.77
39449;BME280;25151;45.566;9.382;2023-04-01T12:37:32;98644.53;;;20.17;56.73
39449;BME280;25151;45.566;9.382;2023-04-01T12:44:52;98648.88;;;20.18;56.77
39449;BME280;25151;45.566;9.382;2023-04-01T12:48:27;98650.16;;;20.17;56.80
39449;BME280;25151;45.566;9.382;2023-04-01T12:58:47;98626.31;;;20.22;56.71
39449;BME280;25151;45.566;9.382;2023-04-01T13:02:31;98618.69;;;20.22;57.17
39449;BME280;25151;45.566;9.382;2023-04-01T13:12:23;98616.56;;;20.17;57.15
39449;BME280;25151;45.566;9.382;2023-04-01T13:15:47;98605.84;;;20.16;57.17
39449;BME280;25151;45.566;9.382;2023-04-01T13:22:27;98614.03;;;20.19;57.05
39449;BME280;25151;45.566;9.382;2023-04-01T13:29:27;98603.66;;;20.20;57.09
39449;BME280;25151;45.566;9.382;2023-04-01T13:32:55;98605.97;;;20.21;57.05
39449;BME280;25151;45.566;9.382;2023-04-01T13:36:16;98606.44;;;20.20;57.15
39449;BME280;25151;45.566;9.382;2023-04-01T13:42:40;98590.44;;;20.20;57.18
39449;BME280;25151;45.566;9.382;2023-04-01T13:55:53;98598.06;;;20.20;56.97
39449;BME280;25151;45.566;9.382;2023-04-01T14:02:17;98595.25;;;20.20;56.87
39449;BME280;25151;45.566;9.382;2023-04-01T14:22:25;98567.44;;;20.16;56.74
39449;BME280;25151;45.566;9.382;2023-04-01T14:32:16;98567.44;;;20.16;57.01
39449;BME280;25151;45.566;9.382;2023-04-01T15:03:01;98523.88;;;20.15;56.78
39449;BME280;25151;45.566;9.382;2023-04-01T15:26:53;98498.84;;;20.21;57.33
39449;BME280;25151;45.566;9.382;2023-04-01T15:33:31;98490.91;;;20.19;57.40
39449;BME280;25151;45.566;9.382;2023-04-01T15:37:00;98491.88;;;20.16;57.66
39449;BME280;25151;45.566;9.382;2023-04-01T15:53:18;98491.28;;;20.12;57.62
39449;BME280;25151;45.566;9.382;2023-04-01T15:56:41;98486.63;;;20.09;57.70
39449;BME280;25151;45.566;9.382;2023-04-01T16:07:02;98479.00;;;20.09;57.63
39449;BME280;25151;45.566;9.382;2023-04-01T16:10:16;98470.03;;;20.05;57.60
39449;BME280;25151;45.566;9.382;2023-04-01T16:16:59;98468.00;;;20.06;57.62
39449;BME280;25151;45.566;9.382;2023-04-01T16:20:24;98470.78;;;20.06;57.58
39449;BME280;25151;45.566;9.382;2023-04-01T16:30:37;98465.69;;;20.04;57.60
39449;BME280;25151;45.566;9.382;2023-04-01T16:33:51;98474.38;;;20.06;57.43
39449;BME280;25151;45.566;9.382;2023-04-01T16:37:03;98470.97;;;20.02;57.68
39449;BME280;25151;45.566;9.382;2023-04-01T16:43:30;98465.69;;;20.04;57.94
39449;BME280;25151;45.566;9.382;2023-04-01T16:49:37;98473.31;;;20.04;57.40
39449;BME280;25151;45.566;9.382;2023-04-01T16:52:58;98459.50;;;20.00;57.70
39449;BME280;25151;45.566;9.382;2023-04-01T16:59:24;98463.84;;;20.01;57.26
39449;BME280;25151;45.566;9.382;2023-04-01T17:02:37;98465.88;;;20.01;57.32
39449;BME280;25151;45.566;9.382;2023-04-01T17:05:40;98463.84;;;20.01;57.33
39449;BME280;25151;45.566;9.382;2023-04-01T17:08:56;98468.34;;;19.99;57.50
39449;BME280;25151;45.566;9.382;2023-04-01T17:12:14;98467.91;;;20.00;57.40
39449;BME280;25151;45.566;9.382;2023-04-01T17:22:44;98469.13;;;19.99;57.51
39449;BME280;25151;45.566;9.382;2023-04-01T17:50:28;98491.50;;;19.99;57.48
39449;BME280;25151;45.566;9.382;2023-04-01T18:00:59;98483.31;;;19.96;57.59
39449;BME280;25151;45.566;9.382;2023-04-01T18:13:41;98491.81;;;20.01;57.85
39449;BME280;25151;45.566;9.382;2023-04-01T18:23:55;98492.91;;;20.04;57.74
39449;BME280;25151;45.566;9.382;2023-04-01T18:27:02;98505.47;;;20.08;57.58
39449;BME280;25151;45.566;9.382;2023-04-01T18:30:15;98501.41;;;20.09;57.73
39449;BME280;25151;45.566;9.382;2023-04-01T18:36:47;98505.75;;;20.10;57.81
39449;BME280;25151;45.566;9.382;2023-04-01T18:40:24;98510.09;;;20.11;57.83
39449;BME280;25151;45.566;9.382;2023-04-01T18:50:26;98514.44;;;20.12;57.69
39449;BME280;25151;45.566;9.382;2023-04-01T18:54:07;98516.94;;;20.10;57.88
39449;BME280;25151;45.566;9.382;2023-04-01T18:57:16;98524.09;;;20.11;57.95
39449;BME280;25151;45.566;9.382;2023-04-01T19:00:39;98529.69;;;20.11;57.98
39449;BME280;25151;45.566;9.382;2023-04-01T19:04:31;98534.31;;;20.14;57.72
39449;BME280;25151;45.566;9.382;2023-04-01T19:07:41;98532.00;;;20.13;57.84
39449;BME280;25151;45.566;9.382;2023-04-01T19:10:54;98531.22;;;20.12;58.03
39449;BME280;25151;45.566;9.382;2023-04-01T19:14:06;98538.56;;;20.10;57.83
39449;BME280;25151;45.566;9.382;2023-04-01T19:17:32;98539.81;;;20.09;57.80
39449;BME280;25151;45.566;9.382;2023-04-01T19:27:42;98541.06;;;20.08;57.96
39449;BME280;25151;45.566;9.382;2023-04-01T19:30:57;98546.66;;;20.08;57.68
39449;BME280;25151;45.566;9.382;2023-04-01T19:34:22;98546.50;;;20.11;57.51
39449;BME280;25151;45.566;9.382;2023-04-01T19:38:07;98551.28;;;20.11;57.85
39449;BME280;25151;45.566;9.382;2023-04-01T19:41:23;98555.34;;;20.10;57.62
39449;BME280;25151;45.566;9.382;2023-04-01T20:04:53;98561.72;;;20.10;57.81
39449;BME280;25151;45.566;9.382;2023-04-01T20:08:28;98563.44;;;20.08;57.99
39449;BME280;25151;45.566;9.382;2023-04-01T20:11:56;98571.66;;;20.11;58.05
39449;BME280;25151;45.566;9.382;2023-04-01T20:15:03;98566.53;;;20.10;58.02
39449;BME280;25151;45.566;9.382;2023-04-01T20:18:18;98563.44;;;20.08;58.03
39449;BME280;25151;45.566;9.382;2023-04-01T20:21:41;98569.03;;;20.08;57.86
39449;BME280;25151;45.566;9.382;2023-04-01T20:24:47;98572.63;;;20.08;58.00
39449;BME280;25151;45.566;9.382;2023-04-01T20:51:15;98585.03;;;20.07;58.41
39449;BME280;25151;45.566;9.382;2023-04-01T20:54:33;98581.00;;;20.08;58.14
39449;BME280;25151;45.566;9.382;2023-04-01T20:57:51;98582.56;;;20.09;58.29
39449;BME280;25151;45.566;9.382;2023-04-01T21:01:19;98595.28;;;20.10;58.19
39449;BME280;25151;45.566;9.382;2023-04-01T21:04:44;98589.69;;;20.10;58.46
39449;BME280;25151;45.566;9.382;2023-04-01T21:11:20;98595.28;;;20.10;58.20
39449;BME280;25151;45.566;9.382;2023-04-01T21:15:01;98603.69;;;20.10;58.53
39449;BME280;25151;45.566;9.382;2023-04-01T21:18:33;98598.84;;;20.11;58.48
39449;BME280;25151;45.566;9.382;2023-04-01T21:22:19;98604.94;;;20.09;58.30
39449;BME280;25151;45.566;9.382;2023-04-01T21:42:32;98630.91;;;20.10;58.48
39449;BME280;25151;45.566;9.382;2023-04-01T22:07:06;98645.66;;;20.10;58.87
39449;BME280;25151;45.566;9.382;2023-04-01T22:17:03;98646.81;;;20.04;58.51
39449;BME280;25151;45.566;9.382;2023-04-01T22:23:39;98649.28;;;20.02;58.35
39449;BME280;25151;45.566;9.382;2023-04-01T22:30:27;98653.34;;;20.01;58.32
39449;BME280;25151;45.566;9.382;2023-04-01T22:43:56;98646.53;;;19.93;58.07
39449;BME280;25151;45.566;9.382;2023-04-01T22:47:45;98655.69;;;19.93;57.87
39449;BME280;25151;45.566;9.382;2023-04-01T22:51:22;98657.56;;;19.96;57.90
39449;BME280;25151;45.566;9.382;2023-04-01T22:54:40;98664.09;;;19.93;58.07
39449;BME280;25151;45.566;9.382;2023-04-01T22:58:03;98661.59;;;19.95;57.81
39449;BME280;25151;45.566;9.382;2023-04-01T23:01:11;98664.38;;;19.95;58.16
39449;BME280;25151;45.566;9.382;2023-04-01T23:04:16;98666.56;;;19.91;57.78
39449;BME280;25151;45.566;9.382;2023-04-01T23:27:28;98681.22;;;19.86;57.88
39449;BME280;25151;45.566;9.382;2023-04-01T23:33:41;98682.75;;;19.87;57.70
39449;BME280;25151;45.566;9.382;2023-04-01T23:36:51;98681.22;;;19.86;57.61
39449;BME280;25151;45.566;9.382;2023-04-01T23:39:59;98674.06;;;19.85;57.79
39449;BME280;25151;45.566;9.382;2023-04-01T23:43:02;98670.97;;;19.83;57.66
39449;BME280;25151;45.566;9.382;2023-04-01T23:46:14;98665.06;;;19.81;57.71
39449;BME280;25151;45.566;9.382;2023-04-01T23:49:25;98674.25;;;19.81;57.67
39449;BME280;25151;45.566;9.382;2023-04-01T23:52:40;98682.91;;;19.83;57.57
39449;BME280;25151;45.566;9.382;2023-04-01T23:55:44;98677.81;;;19.82;57.82
39449;BME280;25151;45.566;9.382;2023-04-01T23:58:50;98681.53;;;19.79;57.91
